Decoded Metar for YPKU (KUNUNURRA in AUSTRALIA) (IATA:KNX) | Meteo·Mobile Aviation Weather
aviador You're here:

YPKU Decoded Metar

KUNUNURRA in AUSTRALIA
Report Time2018-09-18 15:00:00
UTC Time2018-09-18 15:09:17
Flight Rules vfr VFR
Wind270° at 03 kt
W.Decomp.*RWY 30: 2.5 kt HW 1.6 kt LCW
W.Rank270° ranks 34
Current wind is below 270° avg. (4.1)
Visibility9999 m
Phenomena:N/A
Clouds:Scattered 120 Hf
Expected CloudBase > 4,000 ft AGL from Temp-Dew spread
CeilingNone
Temp23°C (ISA +8)
Dew Point13°C (53% RH)
AAT22.8°C
QNH1011 hPa
Density Alt1,381 ft
Elevation148 ft
Report Wrong Elevation
Raw Report
METAR YPKU 181500Z AUTO 27003KT 9999 // SCT120 23/13 Q1011=

Extra information for YPKU:More info

Metar Taf Metar & Taf Last 4 Metars F.Rules Stats Wind Profile Meteogram Temp Stats Airport Information Weather charts Add Link Nearby VenuesMetar ALERT Operation Metar Decoded Social comments